Mertzig, Luxembourg
Current Conditions -  °F | °C
As of 12:50 AM on Tuesday 21 Oct 2014 (Local Time) from ELLX Reporting Station
Scattered Clouds Scattered Clouds  
Wind Chill: 50°   Ceiling: Unl
Heat Index: 50°   Visibility: 4mi
Dew Point: 48°   Wind: 3mph
Humidity: 94%   Direction: 240°WSW
Pressure: 30"   Gusts: NA
Location:  49.83°N, 6.01°E
Report Text: ELLX 202250Z 24003KT 6000 SCT007 10/09 Q1016 NOSIG
Loading
Personal Weather Stations






























Interactive Weather Map
Tropical Storm Tracking
New forecast layout! Learn more

10-Day Weather Forecast

Advertisements
Track Severe Weather on mobile